sensor_id;sensor_type;location;lat;lon;timestamp;temperature;humidity
14577;DHT22;7375;46.072;14.470;2022-09-06T00:01:24;23.70;74.50
14577;DHT22;7375;46.072;14.470;2022-09-06T00:03:50;23.60;74.40
14577;DHT22;7375;46.072;14.470;2022-09-06T00:06:18;23.60;74.40
14577;DHT22;7375;46.072;14.470;2022-09-06T00:08:46;23.60;74.50
14577;DHT22;7375;46.072;14.470;2022-09-06T00:11:13;23.60;74.50
14577;DHT22;7375;46.072;14.470;2022-09-06T00:13:40;23.70;74.60
14577;DHT22;7375;46.072;14.470;2022-09-06T00:16:08;23.60;74.60
14577;DHT22;7375;46.072;14.470;2022-09-06T00:18:35;23.60;74.70
14577;DHT22;7375;46.072;14.470;2022-09-06T00:21:02;23.60;74.70
14577;DHT22;7375;46.072;14.470;2022-09-06T00:23:28;23.60;74.70
14577;DHT22;7375;46.072;14.470;2022-09-06T00:26:01;23.60;74.70
14577;DHT22;7375;46.072;14.470;2022-09-06T00:28:29;23.60;74.70
14577;DHT22;7375;46.072;14.470;2022-09-06T00:30:55;23.60;74.70
14577;DHT22;7375;46.072;14.470;2022-09-06T00:33:25;23.60;74.70
14577;DHT22;7375;46.072;14.470;2022-09-06T00:35:57;23.60;74.70
14577;DHT22;7375;46.072;14.470;2022-09-06T00:38:23;23.60;74.80
14577;DHT22;7375;46.072;14.470;2022-09-06T00:40:50;23.60;74.80
14577;DHT22;7375;46.072;14.470;2022-09-06T00:43:18;23.60;74.80
14577;DHT22;7375;46.072;14.470;2022-09-06T00:45:45;23.60;74.80
14577;DHT22;7375;46.072;14.470;2022-09-06T00:48:12;23.60;74.80
14577;DHT22;7375;46.072;14.470;2022-09-06T00:50:39;23.60;74.80
14577;DHT22;7375;46.072;14.470;2022-09-06T00:53:06;23.60;74.90
14577;DHT22;7375;46.072;14.470;2022-09-06T00:55:32;23.60;74.90
14577;DHT22;7375;46.072;14.470;2022-09-06T00:57:59;23.60;74.90
14577;DHT22;7375;46.072;14.470;2022-09-06T01:00:27;23.60;74.90
14577;DHT22;7375;46.072;14.470;2022-09-06T01:02:54;23.60;74.90
14577;DHT22;7375;46.072;14.470;2022-09-06T01:05:21;23.60;74.90
14577;DHT22;7375;46.072;14.470;2022-09-06T01:07:56;23.60;74.90
14577;DHT22;7375;46.072;14.470;2022-09-06T01:10:28;23.60;75.00
14577;DHT22;7375;46.072;14.470;2022-09-06T01:12:58;23.60;75.00
14577;DHT22;7375;46.072;14.470;2022-09-06T01:15:30;23.60;75.10
14577;DHT22;7375;46.072;14.470;2022-09-06T01:18:00;23.60;75.10
14577;DHT22;7375;46.072;14.470;2022-09-06T01:20:35;23.60;75.00
14577;DHT22;7375;46.072;14.470;2022-09-06T01:25:56;23.60;75.70
14577;DHT22;7375;46.072;14.470;2022-09-06T01:28:27;23.60;75.10
14577;DHT22;7375;46.072;14.470;2022-09-06T01:30:57;23.60;75.10
14577;DHT22;7375;46.072;14.470;2022-09-06T01:33:27;23.60;75.10
14577;DHT22;7375;46.072;14.470;2022-09-06T01:35:56;23.60;75.20
14577;DHT22;7375;46.072;14.470;2022-09-06T01:38:25;23.60;75.20
14577;DHT22;7375;46.072;14.470;2022-09-06T01:40:51;23.60;75.20
14577;DHT22;7375;46.072;14.470;2022-09-06T01:43:21;23.60;75.20
14577;DHT22;7375;46.072;14.470;2022-09-06T01:45:52;23.60;75.30
14577;DHT22;7375;46.072;14.470;2022-09-06T01:48:23;23.60;75.20
14577;DHT22;7375;46.072;14.470;2022-09-06T01:50:57;23.60;75.20
14577;DHT22;7375;46.072;14.470;2022-09-06T01:53:31;23.50;75.20
14577;DHT22;7375;46.072;14.470;2022-09-06T01:56:02;23.50;75.20
14577;DHT22;7375;46.072;14.470;2022-09-06T01:58:38;23.50;75.20
14577;DHT22;7375;46.072;14.470;2022-09-06T02:01:09;23.50;75.20
14577;DHT22;7375;46.072;14.470;2022-09-06T02:03:40;23.50;75.30
14577;DHT22;7375;46.072;14.470;2022-09-06T02:06:16;23.50;75.20
14577;DHT22;7375;46.072;14.470;2022-09-06T02:08:45;23.50;75.20
14577;DHT22;7375;46.072;14.470;2022-09-06T02:11:12;23.50;75.20
14577;DHT22;7375;46.072;14.470;2022-09-06T02:13:42;23.50;75.20
14577;DHT22;7375;46.072;14.470;2022-09-06T02:16:12;23.50;75.30
14577;DHT22;7375;46.072;14.470;2022-09-06T02:18:40;23.50;75.40
14577;DHT22;7375;46.072;14.470;2022-09-06T02:21:09;23.50;75.40
14577;DHT22;7375;46.072;14.470;2022-09-06T02:23:38;23.50;75.40
14577;DHT22;7375;46.072;14.470;2022-09-06T02:26:08;23.50;75.30
14577;DHT22;7375;46.072;14.470;2022-09-06T02:28:36;23.50;75.30
14577;DHT22;7375;46.072;14.470;2022-09-06T02:31:04;23.50;75.30
14577;DHT22;7375;46.072;14.470;2022-09-06T02:33:38;23.50;75.30
14577;DHT22;7375;46.072;14.470;2022-09-06T02:36:09;23.50;75.40
14577;DHT22;7375;46.072;14.470;2022-09-06T02:38:36;23.50;75.50
14577;DHT22;7375;46.072;14.470;2022-09-06T02:41:04;23.50;75.40
14577;DHT22;7375;46.072;14.470;2022-09-06T02:43:31;23.50;75.50
14577;DHT22;7375;46.072;14.470;2022-09-06T02:46:00;23.50;75.50
14577;DHT22;7375;46.072;14.470;2022-09-06T02:48:27;23.50;75.50
14577;DHT22;7375;46.072;14.470;2022-09-06T02:50:55;23.50;75.50
14577;DHT22;7375;46.072;14.470;2022-09-06T02:53:22;23.50;75.50
14577;DHT22;7375;46.072;14.470;2022-09-06T02:55:48;23.50;75.60
14577;DHT22;7375;46.072;14.470;2022-09-06T02:58:15;23.50;75.60
14577;DHT22;7375;46.072;14.470;2022-09-06T03:00:45;23.40;75.50
14577;DHT22;7375;46.072;14.470;2022-09-06T03:03:12;23.40;75.50
14577;DHT22;7375;46.072;14.470;2022-09-06T03:05:40;23.40;75.50
14577;DHT22;7375;46.072;14.470;2022-09-06T03:08:09;23.40;75.70
14577;DHT22;7375;46.072;14.470;2022-09-06T03:10:35;23.40;75.70
14577;DHT22;7375;46.072;14.470;2022-09-06T03:13:03;23.40;75.70
14577;DHT22;7375;46.072;14.470;2022-09-06T03:15:29;23.40;75.70
14577;DHT22;7375;46.072;14.470;2022-09-06T03:17:56;23.40;75.70
14577;DHT22;7375;46.072;14.470;2022-09-06T03:20:24;23.40;75.70
14577;DHT22;7375;46.072;14.470;2022-09-06T03:22:53;23.40;75.70
14577;DHT22;7375;46.072;14.470;2022-09-06T03:25:21;23.40;75.70
14577;DHT22;7375;46.072;14.470;2022-09-06T03:27:49;23.40;75.80
14577;DHT22;7375;46.072;14.470;2022-09-06T03:30:16;23.40;75.80
14577;DHT22;7375;46.072;14.470;2022-09-06T03:32:43;23.40;75.80
14577;DHT22;7375;46.072;14.470;2022-09-06T03:35:11;23.40;75.80
14577;DHT22;7375;46.072;14.470;2022-09-06T03:37:38;23.40;75.80
14577;DHT22;7375;46.072;14.470;2022-09-06T03:40:05;23.40;76.40
14577;DHT22;7375;46.072;14.470;2022-09-06T03:42:33;23.40;75.80
14577;DHT22;7375;46.072;14.470;2022-09-06T03:45:00;23.40;75.90
14577;DHT22;7375;46.072;14.470;2022-09-06T03:47:27;23.40;75.80
14577;DHT22;7375;46.072;14.470;2022-09-06T03:49:53;23.40;76.40
14577;DHT22;7375;46.072;14.470;2022-09-06T03:52:20;23.30;75.80
14577;DHT22;7375;46.072;14.470;2022-09-06T03:54:47;23.40;75.90
14577;DHT22;7375;46.072;14.470;2022-09-06T03:57:14;23.40;75.90
14577;DHT22;7375;46.072;14.470;2022-09-06T03:59:42;23.40;75.90
14577;DHT22;7375;46.072;14.470;2022-09-06T04:02:08;23.40;76.00
14577;DHT22;7375;46.072;14.470;2022-09-06T04:04:35;23.40;76.10
14577;DHT22;7375;46.072;14.470;2022-09-06T04:07:02;23.30;76.00
14577;DHT22;7375;46.072;14.470;2022-09-06T04:09:28;23.30;75.90
14577;DHT22;7375;46.072;14.470;2022-09-06T04:11:55;23.30;75.90
14577;DHT22;7375;46.072;14.470;2022-09-06T04:14:22;23.40;76.00
14577;DHT22;7375;46.072;14.470;2022-09-06T04:16:50;23.40;76.10
14577;DHT22;7375;46.072;14.470;2022-09-06T04:19:17;23.30;75.90
14577;DHT22;7375;46.072;14.470;2022-09-06T04:21:44;23.30;76.00
14577;DHT22;7375;46.072;14.470;2022-09-06T04:24:10;23.30;76.00
14577;DHT22;7375;46.072;14.470;2022-09-06T04:26:37;23.30;76.00
14577;DHT22;7375;46.072;14.470;2022-09-06T04:29:04;23.30;76.00
14577;DHT22;7375;46.072;14.470;2022-09-06T04:31:31;23.30;76.00
14577;DHT22;7375;46.072;14.470;2022-09-06T04:33:59;23.30;76.00
14577;DHT22;7375;46.072;14.470;2022-09-06T04:36:25;23.30;76.10
14577;DHT22;7375;46.072;14.470;2022-09-06T04:38:53;23.30;76.10
14577;DHT22;7375;46.072;14.470;2022-09-06T04:41:20;23.30;76.10
14577;DHT22;7375;46.072;14.470;2022-09-06T04:43:47;23.30;76.10
14577;DHT22;7375;46.072;14.470;2022-09-06T04:46:18;23.30;76.10
14577;DHT22;7375;46.072;14.470;2022-09-06T04:48:45;23.30;76.10
14577;DHT22;7375;46.072;14.470;2022-09-06T04:51:13;23.30;76.10
14577;DHT22;7375;46.072;14.470;2022-09-06T04:53:39;23.30;76.00
14577;DHT22;7375;46.072;14.470;2022-09-06T04:56:06;23.30;76.00
14577;DHT22;7375;46.072;14.470;2022-09-06T04:58:33;23.30;76.10
14577;DHT22;7375;46.072;14.470;2022-09-06T05:01:00;23.30;76.10
14577;DHT22;7375;46.072;14.470;2022-09-06T05:03:26;23.30;76.10
14577;DHT22;7375;46.072;14.470;2022-09-06T05:06:02;23.30;76.10
14577;DHT22;7375;46.072;14.470;2022-09-06T05:08:34;23.20;76.00
14577;DHT22;7375;46.072;14.470;2022-09-06T05:11:01;23.20;76.10
14577;DHT22;7375;46.072;14.470;2022-09-06T05:13:28;23.20;76.00
14577;DHT22;7375;46.072;14.470;2022-09-06T05:15:55;23.20;76.00
14577;DHT22;7375;46.072;14.470;2022-09-06T05:18:25;23.20;76.10
14577;DHT22;7375;46.072;14.470;2022-09-06T05:20:51;23.20;76.10
14577;DHT22;7375;46.072;14.470;2022-09-06T05:23:18;23.20;76.20
14577;DHT22;7375;46.072;14.470;2022-09-06T05:25:46;23.20;76.50
14577;DHT22;7375;46.072;14.470;2022-09-06T05:28:13;23.30;76.30
14577;DHT22;7375;46.072;14.470;2022-09-06T05:30:40;23.30;76.20
14577;DHT22;7375;46.072;14.470;2022-09-06T05:33:07;23.30;76.10
14577;DHT22;7375;46.072;14.470;2022-09-06T05:35:34;23.40;76.10
14577;DHT22;7375;46.072;14.470;2022-09-06T05:38:01;23.40;76.10
14577;DHT22;7375;46.072;14.470;2022-09-06T05:40:28;23.40;75.90
14577;DHT22;7375;46.072;14.470;2022-09-06T05:42:56;23.40;75.80
14577;DHT22;7375;46.072;14.470;2022-09-06T05:45:23;23.40;75.80
14577;DHT22;7375;46.072;14.470;2022-09-06T05:47:50;23.50;76.00
14577;DHT22;7375;46.072;14.470;2022-09-06T05:50:17;23.50;75.80
14577;DHT22;7375;46.072;14.470;2022-09-06T05:52:44;23.50;75.80
14577;DHT22;7375;46.072;14.470;2022-09-06T05:55:11;23.50;76.50
14577;DHT22;7375;46.072;14.470;2022-09-06T05:57:38;23.50;76.30
14577;DHT22;7375;46.072;14.470;2022-09-06T06:00:07;23.40;75.90
14577;DHT22;7375;46.072;14.470;2022-09-06T06:02:36;23.40;75.40
14577;DHT22;7375;46.072;14.470;2022-09-06T06:05:04;23.40;75.10
14577;DHT22;7375;46.072;14.470;2022-09-06T06:07:31;23.40;74.70
14577;DHT22;7375;46.072;14.470;2022-09-06T06:09:57;23.40;74.40
14577;DHT22;7375;46.072;14.470;2022-09-06T06:12:24;23.50;74.60
14577;DHT22;7375;46.072;14.470;2022-09-06T06:14:51;23.40;74.30
14577;DHT22;7375;46.072;14.470;2022-09-06T06:17:19;23.40;74.20
14577;DHT22;7375;46.072;14.470;2022-09-06T06:20:12;23.40;73.50
14577;DHT22;7375;46.072;14.470;2022-09-06T06:22:39;23.50;72.00
14577;DHT22;7375;46.072;14.470;2022-09-06T06:25:06;23.50;70.40
14577;DHT22;7375;46.072;14.470;2022-09-06T06:27:37;23.60;69.10
14577;DHT22;7375;46.072;14.470;2022-09-06T06:30:04;23.80;68.10
14577;DHT22;7375;46.072;14.470;2022-09-06T06:32:33;24.10;66.70
14577;DHT22;7375;46.072;14.470;2022-09-06T06:34:59;24.40;65.70
14577;DHT22;7375;46.072;14.470;2022-09-06T06:37:26;24.60;65.60
14577;DHT22;7375;46.072;14.470;2022-09-06T06:39:53;24.80;66.20
14577;DHT22;7375;46.072;14.470;2022-09-06T06:42:19;25.00;66.20
14577;DHT22;7375;46.072;14.470;2022-09-06T06:44:46;25.10;65.70
14577;DHT22;7375;46.072;14.470;2022-09-06T06:47:14;25.20;65.50
14577;DHT22;7375;46.072;14.470;2022-09-06T06:49:42;25.20;65.10
14577;DHT22;7375;46.072;14.470;2022-09-06T06:52:09;25.40;64.60
14577;DHT22;7375;46.072;14.470;2022-09-06T06:54:36;25.50;64.30
14577;DHT22;7375;46.072;14.470;2022-09-06T06:57:03;25.70;63.30
14577;DHT22;7375;46.072;14.470;2022-09-06T06:59:30;25.90;62.50
14577;DHT22;7375;46.072;14.470;2022-09-06T07:01:56;26.10;62.10
14577;DHT22;7375;46.072;14.470;2022-09-06T07:04:23;26.10;62.00
14577;DHT22;7375;46.072;14.470;2022-09-06T07:06:51;26.20;62.10
14577;DHT22;7375;46.072;14.470;2022-09-06T07:09:19;26.20;61.80
14577;DHT22;7375;46.072;14.470;2022-09-06T07:11:46;26.30;61.60
14577;DHT22;7375;46.072;14.470;2022-09-06T07:14:13;26.40;61.40
14577;DHT22;7375;46.072;14.470;2022-09-06T07:16:41;26.40;61.20
14577;DHT22;7375;46.072;14.470;2022-09-06T07:19:08;26.50;61.20
14577;DHT22;7375;46.072;14.470;2022-09-06T07:21:34;26.50;61.00
14577;DHT22;7375;46.072;14.470;2022-09-06T07:24:08;26.60;60.80
14577;DHT22;7375;46.072;14.470;2022-09-06T07:26:37;26.70;60.60
14577;DHT22;7375;46.072;14.470;2022-09-06T07:29:04;26.80;60.10
14577;DHT22;7375;46.072;14.470;2022-09-06T07:31:31;27.00;59.80
14577;DHT22;7375;46.072;14.470;2022-09-06T07:33:58;27.00;59.60
14577;DHT22;7375;46.072;14.470;2022-09-06T07:36:25;27.10;59.50
14577;DHT22;7375;46.072;14.470;2022-09-06T07:38:52;27.20;59.30
14577;DHT22;7375;46.072;14.470;2022-09-06T07:41:20;27.30;59.10
14577;DHT22;7375;46.072;14.470;2022-09-06T07:43:50;27.30;58.90
14577;DHT22;7375;46.072;14.470;2022-09-06T07:46:18;27.30;58.70
14577;DHT22;7375;46.072;14.470;2022-09-06T07:48:46;27.50;58.40
14577;DHT22;7375;46.072;14.470;2022-09-06T07:51:14;27.60;58.00
14577;DHT22;7375;46.072;14.470;2022-09-06T07:53:42;27.70;57.80
14577;DHT22;7375;46.072;14.470;2022-09-06T07:56:10;27.80;57.70
14577;DHT22;7375;46.072;14.470;2022-09-06T07:58:38;27.80;57.70
14577;DHT22;7375;46.072;14.470;2022-09-06T08:01:16;27.80;57.90
14577;DHT22;7375;46.072;14.470;2022-09-06T08:03:43;27.80;58.10
14577;DHT22;7375;46.072;14.470;2022-09-06T08:06:10;27.70;58.30
14577;DHT22;7375;46.072;14.470;2022-09-06T08:08:37;27.60;58.50
14577;DHT22;7375;46.072;14.470;2022-09-06T08:11:04;27.40;58.70
14577;DHT22;7375;46.072;14.470;2022-09-06T08:13:32;27.30;58.90
14577;DHT22;7375;46.072;14.470;2022-09-06T08:16:00;27.20;59.20
14577;DHT22;7375;46.072;14.470;2022-09-06T08:18:27;27.10;59.20
14577;DHT22;7375;46.072;14.470;2022-09-06T08:20:54;27.10;59.30
14577;DHT22;7375;46.072;14.470;2022-09-06T08:23:21;27.00;59.50
14577;DHT22;7375;46.072;14.470;2022-09-06T08:25:54;27.00;59.60
14577;DHT22;7375;46.072;14.470;2022-09-06T08:28:21;27.00;59.60
14577;DHT22;7375;46.072;14.470;2022-09-06T08:30:48;27.00;59.40
14577;DHT22;7375;46.072;14.470;2022-09-06T08:33:16;27.10;59.40
14577;DHT22;7375;46.072;14.470;2022-09-06T08:35:53;27.10;59.10
14577;DHT22;7375;46.072;14.470;2022-09-06T08:38:20;27.20;58.70
14577;DHT22;7375;46.072;14.470;2022-09-06T08:40:47;27.30;58.40
14577;DHT22;7375;46.072;14.470;2022-09-06T08:43:15;27.30;58.60
14577;DHT22;7375;46.072;14.470;2022-09-06T08:45:43;27.10;59.20
14577;DHT22;7375;46.072;14.470;2022-09-06T08:48:11;26.90;59.50
14577;DHT22;7375;46.072;14.470;2022-09-06T08:50:39;26.90;59.70
14577;DHT22;7375;46.072;14.470;2022-09-06T08:53:08;26.80;59.90
14577;DHT22;7375;46.072;14.470;2022-09-06T08:55:40;26.80;60.00
14577;DHT22;7375;46.072;14.470;2022-09-06T08:58:19;26.80;60.20
14577;DHT22;7375;46.072;14.470;2022-09-06T09:00:47;26.70;60.60
14577;DHT22;7375;46.072;14.470;2022-09-06T09:03:16;26.70;61.00
14577;DHT22;7375;46.072;14.470;2022-09-06T09:05:47;26.60;60.80
14577;DHT22;7375;46.072;14.470;2022-09-06T09:08:17;26.60;60.90
14577;DHT22;7375;46.072;14.470;2022-09-06T09:10:48;26.60;60.70
14577;DHT22;7375;46.072;14.470;2022-09-06T09:13:17;26.60;60.80
14577;DHT22;7375;46.072;14.470;2022-09-06T09:15:46;26.60;60.80
14577;DHT22;7375;46.072;14.470;2022-09-06T09:18:13;26.60;60.90
14577;DHT22;7375;46.072;14.470;2022-09-06T09:20:42;26.50;61.00
14577;DHT22;7375;46.072;14.470;2022-09-06T09:23:10;26.50;60.90
14577;DHT22;7375;46.072;14.470;2022-09-06T09:25:37;26.50;60.80
14577;DHT22;7375;46.072;14.470;2022-09-06T09:28:04;26.50;60.70
14577;DHT22;7375;46.072;14.470;2022-09-06T09:30:43;26.50;60.70
14577;DHT22;7375;46.072;14.470;2022-09-06T09:33:19;26.50;60.70
14577;DHT22;7375;46.072;14.470;2022-09-06T09:35:46;26.50;60.70
14577;DHT22;7375;46.072;14.470;2022-09-06T09:38:19;26.50;60.70
14577;DHT22;7375;46.072;14.470;2022-09-06T09:40:49;26.50;60.50
14577;DHT22;7375;46.072;14.470;2022-09-06T09:43:18;26.50;60.50
14577;DHT22;7375;46.072;14.470;2022-09-06T09:45:45;26.50;60.50
14577;DHT22;7375;46.072;14.470;2022-09-06T09:48:23;26.50;60.60
14577;DHT22;7375;46.072;14.470;2022-09-06T09:50:51;26.50;60.70
14577;DHT22;7375;46.072;14.470;2022-09-06T09:53:20;26.40;60.70
14577;DHT22;7375;46.072;14.470;2022-09-06T09:55:47;26.40;60.70
14577;DHT22;7375;46.072;14.470;2022-09-06T09:58:17;26.40;60.60
14577;DHT22;7375;46.072;14.470;2022-09-06T10:00:45;26.40;60.70
14577;DHT22;7375;46.072;14.470;2022-09-06T10:03:12;26.40;60.90
14577;DHT22;7375;46.072;14.470;2022-09-06T10:05:39;26.40;60.80
14577;DHT22;7375;46.072;14.470;2022-09-06T10:08:08;26.40;60.90
14577;DHT22;7375;46.072;14.470;2022-09-06T10:10:39;26.40;61.00
14577;DHT22;7375;46.072;14.470;2022-09-06T10:13:06;26.40;60.90
14577;DHT22;7375;46.072;14.470;2022-09-06T10:15:34;26.30;60.90
14577;DHT22;7375;46.072;14.470;2022-09-06T10:18:01;26.40;60.90
14577;DHT22;7375;46.072;14.470;2022-09-06T10:20:30;26.30;61.10
14577;DHT22;7375;46.072;14.470;2022-09-06T10:22:59;26.30;61.20
14577;DHT22;7375;46.072;14.470;2022-09-06T10:30:59;26.20;61.30
14577;DHT22;7375;46.072;14.470;2022-09-06T10:33:30;26.20;61.40
14577;DHT22;7375;46.072;14.470;2022-09-06T10:36:01;26.10;61.40
14577;DHT22;7375;46.072;14.470;2022-09-06T10:38:35;26.10;61.40
14577;DHT22;7375;46.072;14.470;2022-09-06T10:41:10;26.10;61.50
14577;DHT22;7375;46.072;14.470;2022-09-06T10:43:43;26.10;61.50
14577;DHT22;7375;46.072;14.470;2022-09-06T10:46:17;26.10;61.50
14577;DHT22;7375;46.072;14.470;2022-09-06T10:48:45;26.10;61.60
14577;DHT22;7375;46.072;14.470;2022-09-06T10:51:14;26.00;61.50
14577;DHT22;7375;46.072;14.470;2022-09-06T10:53:46;26.00;61.50
14577;DHT22;7375;46.072;14.470;2022-09-06T10:56:15;26.00;61.60
14577;DHT22;7375;46.072;14.470;2022-09-06T10:58:47;26.00;61.60
14577;DHT22;7375;46.072;14.470;2022-09-06T11:01:24;26.00;61.60
14577;DHT22;7375;46.072;14.470;2022-09-06T11:03:52;26.00;61.70
14577;DHT22;7375;46.072;14.470;2022-09-06T11:06:21;25.90;61.60
14577;DHT22;7375;46.072;14.470;2022-09-06T11:08:52;26.00;61.70
14577;DHT22;7375;46.072;14.470;2022-09-06T11:11:20;25.90;61.60
14577;DHT22;7375;46.072;14.470;2022-09-06T11:13:48;25.90;61.70
14577;DHT22;7375;46.072;14.470;2022-09-06T11:16:17;25.90;61.70
14577;DHT22;7375;46.072;14.470;2022-09-06T11:18:47;25.90;61.80
14577;DHT22;7375;46.072;14.470;2022-09-06T11:21:23;25.90;61.80
14577;DHT22;7375;46.072;14.470;2022-09-06T11:23:54;25.80;61.70
14577;DHT22;7375;46.072;14.470;2022-09-06T11:26:30;25.80;61.70
14577;DHT22;7375;46.072;14.470;2022-09-06T11:28:59;25.80;61.80
14577;DHT22;7375;46.072;14.470;2022-09-06T11:31:26;25.80;61.80
14577;DHT22;7375;46.072;14.470;2022-09-06T11:34:05;25.80;61.80
14577;DHT22;7375;46.072;14.470;2022-09-06T11:36:37;25.80;61.90
14577;DHT22;7375;46.072;14.470;2022-09-06T11:39:04;25.80;61.80
14577;DHT22;7375;46.072;14.470;2022-09-06T11:41:32;25.80;61.90
14577;DHT22;7375;46.072;14.470;2022-09-06T11:44:00;25.80;61.80
14577;DHT22;7375;46.072;14.470;2022-09-06T11:49:28;25.70;61.80
14577;DHT22;7375;46.072;14.470;2022-09-06T11:51:55;25.70;61.80
14577;DHT22;7375;46.072;14.470;2022-09-06T11:54:26;25.70;61.90
14577;DHT22;7375;46.072;14.470;2022-09-06T11:56:57;25.70;61.80
14577;DHT22;7375;46.072;14.470;2022-09-06T11:59:33;25.70;61.90
14577;DHT22;7375;46.072;14.470;2022-09-06T12:02:01;25.70;61.90
14577;DHT22;7375;46.072;14.470;2022-09-06T12:07:15;25.60;61.90
14577;DHT22;7375;46.072;14.470;2022-09-06T12:09:41;25.60;61.80
14577;DHT22;7375;46.072;14.470;2022-09-06T12:12:09;25.60;61.90
14577;DHT22;7375;46.072;14.470;2022-09-06T12:14:36;25.60;61.80
14577;DHT22;7375;46.072;14.470;2022-09-06T12:19:56;25.60;61.70
14577;DHT22;7375;46.072;14.470;2022-09-06T12:28:21;25.60;61.80
14577;DHT22;7375;46.072;14.470;2022-09-06T12:30:48;25.60;61.80
14577;DHT22;7375;46.072;14.470;2022-09-06T12:33:19;25.60;61.60
14577;DHT22;7375;46.072;14.470;2022-09-06T12:35:47;25.60;61.70
14577;DHT22;7375;46.072;14.470;2022-09-06T12:38:15;25.60;61.60
14577;DHT22;7375;46.072;14.470;2022-09-06T12:40:43;25.60;61.70
14577;DHT22;7375;46.072;14.470;2022-09-06T12:43:14;25.50;61.60
14577;DHT22;7375;46.072;14.470;2022-09-06T12:45:44;25.60;61.90
14577;DHT22;7375;46.072;14.470;2022-09-06T12:48:24;25.60;61.70
14577;DHT22;7375;46.072;14.470;2022-09-06T12:51:01;25.50;61.70
14577;DHT22;7375;46.072;14.470;2022-09-06T12:53:31;25.50;61.90
14577;DHT22;7375;46.072;14.470;2022-09-06T12:56:06;25.50;62.00
14577;DHT22;7375;46.072;14.470;2022-09-06T12:58:33;25.50;62.00
14577;DHT22;7375;46.072;14.470;2022-09-06T13:01:04;25.50;62.00
14577;DHT22;7375;46.072;14.470;2022-09-06T13:03:34;25.50;61.90
14577;DHT22;7375;46.072;14.470;2022-09-06T13:06:03;25.50;62.00
14577;DHT22;7375;46.072;14.470;2022-09-06T13:08:31;25.40;62.00
14577;DHT22;7375;46.072;14.470;2022-09-06T13:10:59;25.40;62.00
14577;DHT22;7375;46.072;14.470;2022-09-06T13:13:26;25.40;62.10
14577;DHT22;7375;46.072;14.470;2022-09-06T13:15:53;25.40;62.10
14577;DHT22;7375;46.072;14.470;2022-09-06T13:18:23;25.40;62.10
14577;DHT22;7375;46.072;14.470;2022-09-06T13:20:57;25.40;62.20
14577;DHT22;7375;46.072;14.470;2022-09-06T13:23:24;25.40;62.20
14577;DHT22;7375;46.072;14.470;2022-09-06T13:25:52;25.40;62.20
14577;DHT22;7375;46.072;14.470;2022-09-06T13:28:26;25.40;62.20
14577;DHT22;7375;46.072;14.470;2022-09-06T13:31:06;25.40;62.20
14577;DHT22;7375;46.072;14.470;2022-09-06T13:33:37;25.40;62.20
14577;DHT22;7375;46.072;14.470;2022-09-06T13:36:07;25.40;62.20
14577;DHT22;7375;46.072;14.470;2022-09-06T13:38:41;25.40;62.20
14577;DHT22;7375;46.072;14.470;2022-09-06T13:43:56;25.40;62.20
14577;DHT22;7375;46.072;14.470;2022-09-06T13:46:22;25.40;62.20
14577;DHT22;7375;46.072;14.470;2022-09-06T13:48:53;25.40;62.20
14577;DHT22;7375;46.072;14.470;2022-09-06T13:51:20;25.40;62.20
14577;DHT22;7375;46.072;14.470;2022-09-06T13:53:47;25.40;62.20
14577;DHT22;7375;46.072;14.470;2022-09-06T13:56:14;25.40;62.20
14577;DHT22;7375;46.072;14.470;2022-09-06T13:58:41;25.40;62.20
14577;DHT22;7375;46.072;14.470;2022-09-06T14:01:08;25.40;62.20
14577;DHT22;7375;46.072;14.470;2022-09-06T14:03:36;25.40;62.20
14577;DHT22;7375;46.072;14.470;2022-09-06T14:06:05;25.40;62.20
14577;DHT22;7375;46.072;14.470;2022-09-06T14:08:32;25.40;62.20
14577;DHT22;7375;46.072;14.470;2022-09-06T14:11:00;25.40;62.20
14577;DHT22;7375;46.072;14.470;2022-09-06T14:13:27;25.40;62.20
14577;DHT22;7375;46.072;14.470;2022-09-06T14:15:55;25.40;62.20
14577;DHT22;7375;46.072;14.470;2022-09-06T14:18:22;25.40;62.20
14577;DHT22;7375;46.072;14.470;2022-09-06T14:20:50;25.40;62.20
14577;DHT22;7375;46.072;14.470;2022-09-06T14:23:18;25.40;62.20
14577;DHT22;7375;46.072;14.470;2022-09-06T14:25:45;25.40;62.20
14577;DHT22;7375;46.072;14.470;2022-09-06T14:28:12;25.40;62.20
14577;DHT22;7375;46.072;14.470;2022-09-06T14:30:38;25.40;62.20
14577;DHT22;7375;46.072;14.470;2022-09-06T14:33:05;25.40;62.10
14577;DHT22;7375;46.072;14.470;2022-09-06T14:35:32;25.40;62.20
14577;DHT22;7375;46.072;14.470;2022-09-06T14:37:58;25.40;62.10
14577;DHT22;7375;46.072;14.470;2022-09-06T14:40:27;25.40;62.10
14577;DHT22;7375;46.072;14.470;2022-09-06T14:42:54;25.40;62.10
14577;DHT22;7375;46.072;14.470;2022-09-06T14:45:22;25.40;62.00
14577;DHT22;7375;46.072;14.470;2022-09-06T14:47:50;25.40;62.00
14577;DHT22;7375;46.072;14.470;2022-09-06T14:50:16;25.40;62.00
14577;DHT22;7375;46.072;14.470;2022-09-06T14:52:43;25.40;62.00
14577;DHT22;7375;46.072;14.470;2022-09-06T14:55:10;25.40;62.10
14577;DHT22;7375;46.072;14.470;2022-09-06T14:57:39;25.40;62.10
14577;DHT22;7375;46.072;14.470;2022-09-06T15:00:11;25.40;62.10
14577;DHT22;7375;46.072;14.470;2022-09-06T15:02:42;25.40;62.00
14577;DHT22;7375;46.072;14.470;2022-09-06T15:05:09;25.40;62.10
14577;DHT22;7375;46.072;14.470;2022-09-06T15:07:39;25.40;61.90
14577;DHT22;7375;46.072;14.470;2022-09-06T15:10:14;25.40;61.90
14577;DHT22;7375;46.072;14.470;2022-09-06T15:12:44;25.40;61.80
14577;DHT22;7375;46.072;14.470;2022-09-06T15:15:14;25.40;61.80
14577;DHT22;7375;46.072;14.470;2022-09-06T15:17:40;25.40;61.60
14577;DHT22;7375;46.072;14.470;2022-09-06T15:20:08;25.40;61.60
14577;DHT22;7375;46.072;14.470;2022-09-06T15:22:36;25.40;61.80
14577;DHT22;7375;46.072;14.470;2022-09-06T15:25:03;25.40;61.60
14577;DHT22;7375;46.072;14.470;2022-09-06T15:27:30;25.40;61.70
14577;DHT22;7375;46.072;14.470;2022-09-06T15:29:59;25.40;61.80
14577;DHT22;7375;46.072;14.470;2022-09-06T15:32:25;25.40;61.90
14577;DHT22;7375;46.072;14.470;2022-09-06T15:34:52;25.40;61.70
14577;DHT22;7375;46.072;14.470;2022-09-06T15:37:19;25.40;61.80
14577;DHT22;7375;46.072;14.470;2022-09-06T15:39:49;25.40;62.40
14577;DHT22;7375;46.072;14.470;2022-09-06T15:42:16;25.40;61.80
14577;DHT22;7375;46.072;14.470;2022-09-06T15:44:42;25.40;61.90
14577;DHT22;7375;46.072;14.470;2022-09-06T15:47:11;25.40;61.90
14577;DHT22;7375;46.072;14.470;2022-09-06T15:49:37;25.40;61.90
14577;DHT22;7375;46.072;14.470;2022-09-06T15:52:05;25.40;61.90
14577;DHT22;7375;46.072;14.470;2022-09-06T15:54:33;25.40;61.90
14577;DHT22;7375;46.072;14.470;2022-09-06T15:57:17;25.40;61.90
14577;DHT22;7375;46.072;14.470;2022-09-06T15:59:45;25.30;61.80
14577;DHT22;7375;46.072;14.470;2022-09-06T16:02:14;25.40;61.90
14577;DHT22;7375;46.072;14.470;2022-09-06T16:04:45;25.30;61.80